createdAt,value
2022-09-26T00:00:56.232Z,96.06
2022-09-26T00:01:56.282Z,96.27
2022-09-26T00:02:56.137Z,96.27
2022-09-26T00:03:55.980Z,96.47
2022-09-26T00:04:55.937Z,96.37
2022-09-26T00:05:55.879Z,96.37
2022-09-26T00:06:55.905Z,96.37
2022-09-26T00:07:55.743Z,96.58
2022-09-26T00:08:55.719Z,96.68
2022-09-26T00:09:55.597Z,96.58
2022-09-26T00:10:55.546Z,96.68
2022-09-26T00:11:57.904Z,96.83
2022-09-26T00:12:55.437Z,96.78
2022-09-26T00:13:55.353Z,96.89
2022-09-26T00:14:55.309Z,96.78
2022-09-26T00:15:55.210Z,96.68
2022-09-26T00:16:55.218Z,96.58
2022-09-26T00:17:55.111Z,96.42
2022-09-26T00:18:55.031Z,96.31
2022-09-26T00:19:54.960Z,96.21
2022-09-26T00:20:54.899Z,96.31
2022-09-26T00:21:54.842Z,96.31
2022-09-26T00:22:54.780Z,96.52
2022-09-26T00:23:54.721Z,96.52
2022-09-26T00:24:54.651Z,96.52
2022-09-26T00:25:54.583Z,96.42
2022-09-26T00:26:54.516Z,96.31
2022-09-26T00:27:54.476Z,96.31
2022-09-26T00:28:54.364Z,96.11
2022-09-26T00:29:55.881Z,96.11
2022-09-26T00:30:54.930Z,96.21
2022-09-26T00:31:54.198Z,96.11
2022-09-26T00:32:54.156Z,96.11
2022-09-26T00:33:54.085Z,96.11
2022-09-26T00:34:53.974Z,96.31
2022-09-26T00:35:53.921Z,96.31
2022-09-26T00:36:53.885Z,96.21
2022-09-26T00:37:53.807Z,96.11
2022-09-26T00:38:53.735Z,96.11
2022-09-26T00:39:53.654Z,96.00
2022-09-26T00:40:53.697Z,95.90
2022-09-26T00:41:54.338Z,96.11
2022-09-26T00:42:53.493Z,96.31
2022-09-26T00:43:53.435Z,96.52
2022-09-26T00:44:53.348Z,96.72
2022-09-26T00:45:53.338Z,96.83
2022-09-26T00:46:53.208Z,96.83
2022-09-26T00:47:54.363Z,96.52
2022-09-26T00:48:53.112Z,96.42
2022-09-26T00:49:53.051Z,96.42
2022-09-26T00:50:52.959Z,96.72
2022-09-26T00:51:52.925Z,96.62
2022-09-26T00:52:52.832Z,96.62
2022-09-26T00:53:53.037Z,96.88
2022-09-26T00:54:52.683Z,96.97
2022-09-26T00:55:52.639Z,97.18
2022-09-26T00:56:52.553Z,97.39
2022-09-26T00:57:52.541Z,97.49
2022-09-26T00:58:52.447Z,97.49
2022-09-26T00:59:52.402Z,97.60
2022-09-26T01:00:52.353Z,97.69
2022-09-26T01:01:52.363Z,97.80
2022-09-26T01:02:52.210Z,97.80
2022-09-26T01:03:52.115Z,97.80
2022-09-26T01:04:52.052Z,98.00
2022-09-26T01:05:53.532Z,97.90
2022-09-26T01:06:51.912Z,97.90
2022-09-26T01:07:51.844Z,97.80
2022-09-26T01:08:51.782Z,97.80
2022-09-26T01:09:51.731Z,98.00
2022-09-26T01:10:51.650Z,98.00
2022-09-26T01:11:51.634Z,98.11
2022-09-26T01:12:51.529Z,98.11
2022-09-26T01:13:51.463Z,98.21
2022-09-26T01:14:51.405Z,98.21
2022-09-26T01:15:51.341Z,98.32
2022-09-26T01:16:51.373Z,98.21
2022-09-26T01:17:52.744Z,98.21
2022-09-26T01:18:51.134Z,98.21
2022-09-26T01:19:51.083Z,98.11
2022-09-26T01:20:51.007Z,98.11
2022-09-26T01:21:51.005Z,98.11
2022-09-26T01:22:50.904Z,98.00
2022-09-26T01:23:52.361Z,98.00
2022-09-26T01:24:50.771Z,97.80
2022-09-26T01:25:50.683Z,97.80
2022-09-26T01:26:50.608Z,97.80
2022-09-26T01:27:50.552Z,97.69
2022-09-26T01:28:50.486Z,97.80
2022-09-26T01:29:50.440Z,97.69
2022-09-26T01:30:50.390Z,97.60
2022-09-26T01:31:50.309Z,97.60
2022-09-26T01:32:50.236Z,97.49
2022-09-26T01:33:50.176Z,97.49
2022-09-26T01:34:50.091Z,97.49
2022-09-26T01:35:50.042Z,97.49
2022-09-26T01:36:49.970Z,97.39
2022-09-26T01:37:49.918Z,97.39
2022-09-26T01:38:49.837Z,97.28
2022-09-26T01:39:49.788Z,97.18
2022-09-26T01:40:49.884Z,97.49
2022-09-26T01:41:49.671Z,97.39
2022-09-26T01:42:49.592Z,97.39
2022-09-26T01:43:49.524Z,97.39
2022-09-26T01:44:49.444Z,97.39
2022-09-26T01:45:49.451Z,97.49
2022-09-26T01:46:49.317Z,97.39
2022-09-26T01:47:49.342Z,97.49
2022-09-26T01:48:49.205Z,97.49
2022-09-26T01:49:49.123Z,97.49
2022-09-26T01:50:49.091Z,97.49
2022-09-26T01:51:49.028Z,97.49
2022-09-26T01:52:48.931Z,97.53
2022-09-26T01:53:48.882Z,97.53
2022-09-26T01:54:48.819Z,97.64
2022-09-26T01:55:48.731Z,97.74
2022-09-26T01:56:48.670Z,97.74
2022-09-26T01:57:48.620Z,97.74
2022-09-26T01:58:48.550Z,97.74
2022-09-26T01:59:50.946Z,97.74
2022-09-26T02:00:48.433Z,97.74
2022-09-26T02:01:48.430Z,97.74
2022-09-26T02:02:48.332Z,97.74
2022-09-26T02:03:48.216Z,97.64
2022-09-26T02:04:48.151Z,97.53
2022-09-26T02:05:48.097Z,97.53
2022-09-26T02:06:48.033Z,97.43
2022-09-26T02:07:47.972Z,97.43
2022-09-26T02:08:47.887Z,97.43
2022-09-26T02:09:47.828Z,97.43
2022-09-26T02:10:47.813Z,97.43
2022-09-26T02:11:47.736Z,97.23
2022-09-26T02:12:47.649Z,97.13
2022-09-26T02:13:47.606Z,97.23
2022-09-26T02:14:47.525Z,97.13
2022-09-26T02:15:47.444Z,97.13
2022-09-26T02:16:47.521Z,97.13
2022-09-26T02:17:47.329Z,97.08
2022-09-26T02:18:47.268Z,96.77
2022-09-26T02:19:47.172Z,96.77
2022-09-26T02:20:47.129Z,96.77
2022-09-26T02:21:47.065Z,96.88
2022-09-26T02:22:47.014Z,96.88
2022-09-26T02:23:48.896Z,96.67
2022-09-26T02:24:46.866Z,96.56
2022-09-26T02:25:46.786Z,96.56
2022-09-26T02:26:46.770Z,96.67
2022-09-26T02:27:46.676Z,96.77
2022-09-26T02:28:46.595Z,96.67
2022-09-26T02:29:46.561Z,96.77
2022-09-26T02:30:46.488Z,96.67
2022-09-26T02:31:46.469Z,96.46
2022-09-26T02:32:46.332Z,96.46
2022-09-26T02:33:46.285Z,96.46
2022-09-26T02:34:46.244Z,96.36
2022-09-26T02:35:46.165Z,96.36
2022-09-26T02:36:46.091Z,96.36
2022-09-26T02:37:46.016Z,96.36
2022-09-26T02:38:45.946Z,96.46
2022-09-26T02:39:45.882Z,96.15
2022-09-26T02:40:45.878Z,95.95
2022-09-26T02:41:46.537Z,96.15
2022-09-26T02:42:45.687Z,95.80
2022-09-26T02:43:45.632Z,96.00
2022-09-26T02:44:45.567Z,95.39
2022-09-26T02:45:45.581Z,95.39
2022-09-26T02:46:45.440Z,95.18
2022-09-26T02:47:46.586Z,95.18
2022-09-26T02:48:45.307Z,95.08
2022-09-26T02:49:45.250Z,94.87
2022-09-26T02:50:45.184Z,94.67
2022-09-26T02:51:45.136Z,94.87
2022-09-26T02:52:45.048Z,94.98
2022-09-26T02:53:45.005Z,94.87
2022-09-26T02:54:44.926Z,94.87
2022-09-26T02:55:44.845Z,94.77
2022-09-26T02:56:44.783Z,94.67
2022-09-26T02:57:44.711Z,94.77
2022-09-26T02:58:44.659Z,94.77
2022-09-26T02:59:44.612Z,94.42
2022-09-26T03:00:44.566Z,94.31
2022-09-26T03:01:44.500Z,94.42
2022-09-26T03:02:44.400Z,94.56
2022-09-26T03:03:44.369Z,94.67
2022-09-26T03:04:44.347Z,94.77
2022-09-26T03:05:45.263Z,94.73
2022-09-26T03:06:44.143Z,94.83
2022-09-26T03:07:44.063Z,94.83
2022-09-26T03:08:44.020Z,94.93
2022-09-26T03:09:43.937Z,95.34
2022-09-26T03:10:43.881Z,95.03
2022-09-26T03:11:43.838Z,94.73
2022-09-26T03:12:43.777Z,94.93
2022-09-26T03:13:43.697Z,94.73
2022-09-26T03:14:43.623Z,94.62
2022-09-26T03:15:43.563Z,94.83
2022-09-26T03:16:43.572Z,94.73
2022-09-26T03:17:44.213Z,94.83
2022-09-26T03:18:43.354Z,94.52
2022-09-26T03:19:43.289Z,94.62
2022-09-26T03:20:43.220Z,94.83
2022-09-26T03:21:43.196Z,94.73
2022-09-26T03:22:43.124Z,94.73
2022-09-26T03:23:45.320Z,94.83
2022-09-26T03:24:42.966Z,94.52
2022-09-26T03:25:42.899Z,94.62
2022-09-26T03:26:42.851Z,94.52
2022-09-26T03:27:42.769Z,94.62
2022-09-26T03:28:42.715Z,94.73
2022-09-26T03:29:42.668Z,94.62
2022-09-26T03:30:42.577Z,94.62
2022-09-26T03:31:42.571Z,94.73
2022-09-26T03:32:42.481Z,94.93
2022-09-26T03:33:42.383Z,94.93
2022-09-26T03:34:42.332Z,94.93
2022-09-26T03:35:42.293Z,95.03
2022-09-26T03:36:42.223Z,94.93
2022-09-26T03:37:42.163Z,94.83
2022-09-26T03:38:42.073Z,94.62
2022-09-26T03:39:42.008Z,94.77
2022-09-26T03:40:41.976Z,94.73
2022-09-26T03:41:41.888Z,94.98
2022-09-26T03:42:41.816Z,94.83
2022-09-26T03:43:41.746Z,94.77
2022-09-26T03:44:41.687Z,94.77
2022-09-26T03:45:41.663Z,94.98
2022-09-26T03:46:41.563Z,94.83
2022-09-26T03:47:41.502Z,95.03
2022-09-26T03:48:41.411Z,95.03
2022-09-26T03:49:41.356Z,95.08
2022-09-26T03:50:41.276Z,95.08
2022-09-26T03:51:41.230Z,95.08
2022-09-26T03:52:41.174Z,95.18
2022-09-26T03:53:42.342Z,95.08
2022-09-26T03:54:41.037Z,95.18
2022-09-26T03:55:40.979Z,95.28
2022-09-26T03:56:40.893Z,95.28
2022-09-26T03:57:40.862Z,95.49
2022-09-26T03:58:40.758Z,95.59
2022-09-26T03:59:41.495Z,95.49
2022-09-26T04:00:40.681Z,95.49
2022-09-26T04:01:40.585Z,95.70
2022-09-26T04:02:40.564Z,95.49
2022-09-26T04:03:40.437Z,95.49
2022-09-26T04:04:40.395Z,95.59
2022-09-26T04:05:40.326Z,95.59
2022-09-26T04:06:40.247Z,95.49
2022-09-26T04:07:40.180Z,95.49
2022-09-26T04:08:40.131Z,95.70
2022-09-26T04:09:40.071Z,95.59
2022-09-26T04:10:39.996Z,95.59
2022-09-26T04:11:40.200Z,95.59
2022-09-26T04:12:39.872Z,95.59
2022-09-26T04:13:51.405Z,95.70
2022-09-26T04:14:39.734Z,95.49
2022-09-26T04:15:39.684Z,95.49
2022-09-26T04:16:39.670Z,95.49
2022-09-26T04:17:41.068Z,95.39
2022-09-26T04:18:39.479Z,95.49
2022-09-26T04:19:39.418Z,95.18
2022-09-26T04:20:39.342Z,94.98
2022-09-26T04:21:39.290Z,95.18
2022-09-26T04:22:39.205Z,95.08
2022-09-26T04:23:39.176Z,95.18
2022-09-26T04:24:39.079Z,95.39
2022-09-26T04:25:39.017Z,95.39
2022-09-26T04:26:38.965Z,95.18
2022-09-26T04:27:38.903Z,95.49
2022-09-26T04:28:38.821Z,95.39
2022-09-26T04:29:38.791Z,95.49
2022-09-26T04:30:38.707Z,95.49
2022-09-26T04:31:38.788Z,95.39
2022-09-26T04:32:38.595Z,95.49
2022-09-26T04:33:38.505Z,95.28
2022-09-26T04:34:38.456Z,95.28
2022-09-26T04:35:38.372Z,95.08
2022-09-26T04:36:38.300Z,94.98
2022-09-26T04:37:38.278Z,94.87
2022-09-26T04:38:38.174Z,94.98
2022-09-26T04:39:38.140Z,95.12
2022-09-26T04:40:42.065Z,95.12
2022-09-26T04:41:38.787Z,95.23
2022-09-26T04:42:37.925Z,95.33
2022-09-26T04:43:37.795Z,95.33
2022-09-26T04:44:37.804Z,95.23
2022-09-26T04:45:37.836Z,95.12
2022-09-26T04:46:37.658Z,95.33
2022-09-26T04:47:38.361Z,95.23
2022-09-26T04:48:37.471Z,95.33
2022-09-26T04:49:37.424Z,95.43
2022-09-26T04:50:37.367Z,95.53
2022-09-26T04:51:37.303Z,95.53
2022-09-26T04:52:37.243Z,95.53
2022-09-26T04:53:37.231Z,95.43
2022-09-26T04:54:37.096Z,95.43
2022-09-26T04:55:37.032Z,95.33
2022-09-26T04:56:36.949Z,95.53
2022-09-26T04:57:36.919Z,95.33
2022-09-26T04:58:36.817Z,95.33
2022-09-26T04:59:38.301Z,95.33
2022-09-26T05:00:36.818Z,95.33
2022-09-26T05:01:36.642Z,95.23
2022-09-26T05:02:36.665Z,95.33
2022-09-26T05:03:36.524Z,95.43
2022-09-26T05:04:36.444Z,95.43
2022-09-26T05:05:37.600Z,95.53
2022-09-26T05:06:36.316Z,95.43
2022-09-26T05:07:36.240Z,95.53
2022-09-26T05:08:36.175Z,95.43
2022-09-26T05:09:36.514Z,95.33
2022-09-26T05:10:36.060Z,95.23
2022-09-26T05:11:35.996Z,95.23
2022-09-26T05:12:35.960Z,95.33
2022-09-26T05:13:35.849Z,95.23
2022-09-26T05:14:35.782Z,95.12
2022-09-26T05:15:35.739Z,95.02
2022-09-26T05:16:35.708Z,95.02
2022-09-26T05:17:35.940Z,94.92
2022-09-26T05:18:35.528Z,95.12
2022-09-26T05:19:35.481Z,95.33
2022-09-26T05:20:35.424Z,95.12
2022-09-26T05:21:35.344Z,94.92
2022-09-26T05:22:35.303Z,95.12
2022-09-26T05:23:35.219Z,95.02
2022-09-26T05:24:35.134Z,95.02
2022-09-26T05:25:35.090Z,95.02
2022-09-26T05:26:35.009Z,95.02
2022-09-26T05:27:34.994Z,94.92
2022-09-26T05:28:34.903Z,94.92
2022-09-26T05:29:34.825Z,94.81
2022-09-26T05:30:34.751Z,94.92
2022-09-26T05:31:34.856Z,95.02
2022-09-26T05:32:34.624Z,94.81
2022-09-26T05:33:34.574Z,94.92
2022-09-26T05:34:34.493Z,94.71
2022-09-26T05:35:37.507Z,94.56
2022-09-26T05:36:34.380Z,94.67
2022-09-26T05:37:34.331Z,94.77
2022-09-26T05:38:34.255Z,94.67
2022-09-26T05:39:36.782Z,94.77
2022-09-26T05:40:34.165Z,94.77
2022-09-26T05:41:34.043Z,94.56
2022-09-26T05:42:33.993Z,94.56
2022-09-26T05:43:33.948Z,94.56
2022-09-26T05:44:33.856Z,94.46
2022-09-26T05:45:33.797Z,94.56
2022-09-26T05:46:33.746Z,94.67
2022-09-26T05:47:33.692Z,94.56
2022-09-26T05:48:33.585Z,94.46
2022-09-26T05:49:33.515Z,94.36
2022-09-26T05:50:33.454Z,94.36
2022-09-26T05:51:33.404Z,94.36
2022-09-26T05:52:33.358Z,94.42
2022-09-26T05:53:33.279Z,94.01
2022-09-26T05:54:33.204Z,94.21
2022-09-26T05:55:33.144Z,94.11
2022-09-26T05:56:33.082Z,94.01
2022-09-26T05:57:33.011Z,93.70
2022-09-26T05:58:32.956Z,93.70
2022-09-26T05:59:35.951Z,93.70
2022-09-26T06:00:32.820Z,93.49
2022-09-26T06:01:32.759Z,93.39
2022-09-26T06:02:32.738Z,93.44
2022-09-26T06:03:32.613Z,93.24
2022-09-26T06:04:32.560Z,93.24
2022-09-26T06:05:32.493Z,93.14
2022-09-26T06:06:32.420Z,93.24
2022-09-26T06:07:32.367Z,93.14
2022-09-26T06:08:32.298Z,93.35
2022-09-26T06:09:32.229Z,93.04
2022-09-26T06:10:32.187Z,92.93
2022-09-26T06:11:32.104Z,92.93
2022-09-26T06:12:32.038Z,92.93
2022-09-26T06:13:31.964Z,93.04
2022-09-26T06:14:31.916Z,93.24
2022-09-26T06:15:31.831Z,93.24
2022-09-26T06:16:31.895Z,93.44
2022-09-26T06:17:32.938Z,93.55
2022-09-26T06:18:31.654Z,93.65
2022-09-26T06:19:31.585Z,93.76
2022-09-26T06:20:31.626Z,93.86
2022-09-26T06:21:31.443Z,93.96
2022-09-26T06:22:31.402Z,93.92
2022-09-26T06:23:31.335Z,93.71
2022-09-26T06:24:31.254Z,93.71
2022-09-26T06:25:31.205Z,93.92
2022-09-26T06:26:31.158Z,93.92
2022-09-26T06:27:31.081Z,93.82
2022-09-26T06:28:31.033Z,93.61
2022-09-26T06:29:31.745Z,93.51
2022-09-26T06:30:30.886Z,93.61
2022-09-26T06:31:30.915Z,93.61
2022-09-26T06:32:30.733Z,93.26
2022-09-26T06:33:33.386Z,93.46
2022-09-26T06:34:31.183Z,93.26
2022-09-26T06:35:30.884Z,93.16
2022-09-26T06:36:30.507Z,93.05
2022-09-26T06:37:30.424Z,93.26
2022-09-26T06:38:30.365Z,93.05
2022-09-26T06:39:30.279Z,93.16
2022-09-26T06:40:30.296Z,93.05
2022-09-26T06:41:30.203Z,92.60
2022-09-26T06:42:30.101Z,92.50
2022-09-26T06:43:30.032Z,92.29
2022-09-26T06:44:29.969Z,92.29
2022-09-26T06:45:29.976Z,91.99
2022-09-26T06:46:29.860Z,91.99
2022-09-26T06:47:32.063Z,92.08
2022-09-26T06:48:29.713Z,91.88
2022-09-26T06:49:29.636Z,91.42
2022-09-26T06:50:29.581Z,91.53
2022-09-26T06:51:29.518Z,91.42
2022-09-26T06:52:29.481Z,91.42
2022-09-26T06:53:29.401Z,91.02
2022-09-26T06:54:29.324Z,90.56
2022-09-26T06:55:29.253Z,90.26
2022-09-26T06:56:29.185Z,89.95
2022-09-26T06:57:29.117Z,90.05
2022-09-26T06:58:29.055Z,89.95
2022-09-26T06:59:29.029Z,89.75
2022-09-26T07:00:28.950Z,89.84
2022-09-26T07:01:29.002Z,89.95
2022-09-26T07:02:28.889Z,89.75
2022-09-26T07:03:28.742Z,89.95
2022-09-26T07:04:28.900Z,90.05
2022-09-26T07:05:28.630Z,90.05
2022-09-26T07:06:28.891Z,90.05
2022-09-26T07:07:28.505Z,89.95
2022-09-26T07:08:50.439Z,90.01
2022-09-26T07:09:28.352Z,89.60
2022-09-26T07:10:28.761Z,89.70
2022-09-26T07:11:38.273Z,89.81
2022-09-26T07:12:28.170Z,89.70
2022-09-26T07:13:28.103Z,89.50
2022-09-26T07:14:28.031Z,89.70
2022-09-26T07:15:27.997Z,89.70
2022-09-26T07:16:28.013Z,89.70
2022-09-26T07:17:27.844Z,89.39
2022-09-26T07:18:27.762Z,89.60
2022-09-26T07:19:27.711Z,89.50
2022-09-26T07:20:27.652Z,89.50
2022-09-26T07:21:27.594Z,89.50
2022-09-26T07:22:27.504Z,89.19
2022-09-26T07:23:27.505Z,88.94
2022-09-26T07:24:27.654Z,89.04
2022-09-26T07:25:27.390Z,88.53
2022-09-26T07:26:27.251Z,88.53
2022-09-26T07:27:27.794Z,88.29
2022-09-26T07:28:27.137Z,88.70
2022-09-26T07:29:27.376Z,88.59
2022-09-26T07:30:27.001Z,88.18
2022-09-26T07:31:27.000Z,88.23
2022-09-26T07:32:26.946Z,88.53
2022-09-26T07:33:26.808Z,88.59
2022-09-26T07:34:26.729Z,88.29
2022-09-26T07:35:26.704Z,88.39
2022-09-26T07:36:26.596Z,88.18
2022-09-26T07:37:26.561Z,87.94
2022-09-26T07:38:26.468Z,87.12
2022-09-26T07:39:26.431Z,87.02
2022-09-26T07:40:26.432Z,86.91
2022-09-26T07:41:27.058Z,87.29
2022-09-26T07:42:26.232Z,86.57
2022-09-26T07:43:42.817Z,86.57
2022-09-26T07:45:20.422Z,86.32
2022-09-26T07:45:30.021Z,85.81
2022-09-26T07:46:26.008Z,85.61
2022-09-26T07:47:25.925Z,85.91
2022-09-26T07:48:25.834Z,85.50
2022-09-26T07:49:25.788Z,86.12
2022-09-26T07:50:25.694Z,86.02
2022-09-26T07:51:25.628Z,85.91
2022-09-26T07:52:25.602Z,85.91
2022-09-26T07:53:25.501Z,86.12
2022-09-26T07:54:25.435Z,85.81
2022-09-26T07:55:25.386Z,86.16
2022-09-26T07:56:25.552Z,85.75
2022-09-26T07:57:25.258Z,86.46
2022-09-26T07:58:25.192Z,86.67
2022-09-26T07:59:25.131Z,86.57
2022-09-26T08:00:25.083Z,86.98
2022-09-26T08:01:25.057Z,86.98
2022-09-26T08:02:25.025Z,86.77
2022-09-26T08:03:24.847Z,87.08
2022-09-26T08:04:24.872Z,86.98
2022-09-26T08:05:24.879Z,87.08
2022-09-26T08:06:24.671Z,86.98
2022-09-26T08:07:24.614Z,87.29
2022-09-26T08:08:24.531Z,87.29
2022-09-26T08:09:24.501Z,86.98
2022-09-26T08:10:24.417Z,86.98
2022-09-26T08:11:24.390Z,87.29
2022-09-26T08:12:24.282Z,87.29
2022-09-26T08:13:24.243Z,87.18
2022-09-26T08:14:24.152Z,86.88
2022-09-26T08:15:24.073Z,87.35
2022-09-26T08:16:24.083Z,86.77
2022-09-26T08:17:23.995Z,87.08
2022-09-26T08:18:23.907Z,87.18
2022-09-26T08:19:23.829Z,87.38
2022-09-26T08:20:26.329Z,87.38
2022-09-26T08:21:23.718Z,87.70
2022-09-26T08:22:23.634Z,87.79
2022-09-26T08:23:24.778Z,87.59
2022-09-26T08:24:23.539Z,88.00
2022-09-26T08:25:23.446Z,87.38
2022-09-26T08:26:23.358Z,87.29
2022-09-26T08:27:23.327Z,87.59
2022-09-26T08:28:23.241Z,87.59
2022-09-26T08:29:23.190Z,87.49
2022-09-26T08:30:23.114Z,87.24
2022-09-26T08:31:23.243Z,87.76
2022-09-26T08:32:23.001Z,87.35
2022-09-26T08:33:22.910Z,87.04
2022-09-26T08:34:25.609Z,86.83
2022-09-26T08:35:23.566Z,86.94
2022-09-26T08:36:22.716Z,86.83
2022-09-26T08:37:22.692Z,86.53
2022-09-26T08:38:22.589Z,86.73
2022-09-26T08:39:22.521Z,86.32
2022-09-26T08:40:22.546Z,85.97
2022-09-26T08:41:23.179Z,86.18
2022-09-26T08:42:22.356Z,85.97
2022-09-26T08:43:22.277Z,85.67
2022-09-26T08:44:22.224Z,85.57
2022-09-26T08:45:22.148Z,85.67
2022-09-26T08:46:22.160Z,85.57
2022-09-26T08:47:22.049Z,85.57
2022-09-26T08:48:21.951Z,85.36
2022-09-26T08:49:21.885Z,84.95
2022-09-26T08:50:21.821Z,85.26
2022-09-26T08:51:26.736Z,84.85
2022-09-26T08:52:21.705Z,84.75
2022-09-26T08:53:22.836Z,84.09
2022-09-26T08:54:21.567Z,83.79
2022-09-26T08:55:21.492Z,83.59
2022-09-26T08:56:21.437Z,83.59
2022-09-26T08:57:21.370Z,84.06
2022-09-26T08:58:25.239Z,83.14
2022-09-26T08:59:21.261Z,82.73
2022-09-26T09:00:21.166Z,83.14
2022-09-26T09:01:21.118Z,82.63
2022-09-26T09:02:21.200Z,82.12
2022-09-26T09:03:21.011Z,81.60
2022-09-26T09:04:20.906Z,81.71
2022-09-26T09:05:24.666Z,81.57
2022-09-26T09:06:20.788Z,80.96
2022-09-26T09:07:20.738Z,80.04
2022-09-26T09:08:20.680Z,80.24
2022-09-26T09:09:20.586Z,80.14
2022-09-26T09:10:20.526Z,80.65
2022-09-26T09:11:20.467Z,80.75
2022-09-26T09:12:23.651Z,80.55
2022-09-26T09:13:20.326Z,80.34
2022-09-26T09:14:21.041Z,80.61
2022-09-26T09:15:25.714Z,80.10
2022-09-26T09:16:20.174Z,79.18
2022-09-26T09:17:21.283Z,79.02
2022-09-26T09:18:20.039Z,79.08
2022-09-26T09:19:19.998Z,79.39
2022-09-26T09:20:21.395Z,78.47
2022-09-26T09:21:19.886Z,78.57
2022-09-26T09:22:19.867Z,78.37
2022-09-26T09:23:20.408Z,77.75
2022-09-26T09:24:19.619Z,77.25
2022-09-26T09:25:19.547Z,77.72
2022-09-26T09:28:19.358Z,76.46
2022-09-26T09:29:20.850Z,76.56
2022-09-26T09:30:19.251Z,76.35
2022-09-26T09:31:19.177Z,76.35
2022-09-26T09:32:19.115Z,75.34
2022-09-26T09:33:19.050Z,75.13
2022-09-26T09:34:18.972Z,74.32
2022-09-26T09:35:18.941Z,73.81
2022-09-26T09:36:18.862Z,73.81
2022-09-26T09:37:18.777Z,73.81
2022-09-26T09:38:18.728Z,74.01
2022-09-26T09:39:18.677Z,75.48
2022-09-26T09:40:18.772Z,75.27
2022-09-26T09:41:18.554Z,75.03
2022-09-26T09:42:18.468Z,75.44
2022-09-26T09:43:18.433Z,75.13
2022-09-26T09:44:18.373Z,73.47
2022-09-26T09:45:18.273Z,73.74
2022-09-26T09:46:18.278Z,72.82
2022-09-26T09:47:22.215Z,72.38
2022-09-26T09:48:18.074Z,72.04
2022-09-26T09:49:18.027Z,71.30
2022-09-26T09:50:18.270Z,72.01
2022-09-26T09:51:17.883Z,70.07
2022-09-26T09:52:17.826Z,69.64
2022-09-26T09:53:17.763Z,68.79
2022-09-26T09:54:17.709Z,67.36
2022-09-26T09:55:17.622Z,66.42
2022-09-26T09:56:21.211Z,67.00
2022-09-26T09:57:17.491Z,67.00
2022-09-26T09:58:17.437Z,66.49
2022-09-26T09:59:17.387Z,66.49
2022-09-26T10:00:17.454Z,66.39
2022-09-26T10:01:17.236Z,66.83
2022-09-26T10:02:17.218Z,66.96
2022-09-26T10:03:17.199Z,67.47
2022-09-26T10:04:17.056Z,67.80
2022-09-26T10:05:17.009Z,68.52
2022-09-26T10:06:44.555Z,68.85
2022-09-26T10:07:16.852Z,69.57
2022-09-26T10:08:16.809Z,69.36
2022-09-26T10:09:35.632Z,70.10
2022-09-26T10:10:16.704Z,69.97
2022-09-26T10:11:17.411Z,68.21
2022-09-26T10:12:16.535Z,68.59
2022-09-26T10:13:16.458Z,67.88
2022-09-26T10:14:16.505Z,67.77
2022-09-26T10:15:16.358Z,66.60
2022-09-26T10:16:16.410Z,66.77
2022-09-26T10:17:16.223Z,65.72
2022-09-26T10:18:25.737Z,64.91
2022-09-26T10:19:16.083Z,64.91
2022-09-26T10:20:16.061Z,63.89
2022-09-26T10:21:15.965Z,63.59
2022-09-26T10:22:15.909Z,63.06
2022-09-26T10:23:17.399Z,62.95
2022-09-26T10:24:15.839Z,62.54
2022-09-26T10:25:15.715Z,62.78
2022-09-26T10:26:15.662Z,63.39
2022-09-26T10:27:15.574Z,63.52
2022-09-26T10:28:15.512Z,64.33
2022-09-26T10:29:15.465Z,64.43
2022-09-26T10:30:15.400Z,65.58
2022-09-26T10:31:15.346Z,65.17
2022-09-26T10:32:15.282Z,65.37
2022-09-26T10:33:15.193Z,65.24
2022-09-26T10:34:15.299Z,64.33
2022-09-26T10:35:19.577Z,65.45
2022-09-26T10:36:15.006Z,63.92
2022-09-26T10:37:14.932Z,63.42
2022-09-26T10:38:14.874Z,64.23
2022-09-26T10:39:14.795Z,64.46
2022-09-26T10:40:14.890Z,64.46
2022-09-26T10:41:14.700Z,64.76
2022-09-26T10:42:14.633Z,64.33
2022-09-26T10:43:14.556Z,64.84
2022-09-26T10:44:14.602Z,65.04
2022-09-26T10:45:14.422Z,65.14
2022-09-26T10:46:14.356Z,63.59
2022-09-26T10:47:15.338Z,63.18
2022-09-26T10:48:14.255Z,63.08
2022-09-26T10:49:14.172Z,64.00
2022-09-26T10:50:14.183Z,63.39
2022-09-26T10:51:14.028Z,63.18
2022-09-26T10:52:18.346Z,62.98
2022-09-26T10:53:13.961Z,62.98
2022-09-26T10:54:13.846Z,62.04
2022-09-26T10:55:13.774Z,62.34
2022-09-26T10:56:13.737Z,61.63
2022-09-26T10:57:13.641Z,61.43
2022-09-26T10:58:15.347Z,61.53
2022-09-26T10:59:15.845Z,61.74
2022-09-26T11:00:13.489Z,61.51
2022-09-26T11:01:13.426Z,61.91
2022-09-26T11:02:13.464Z,61.20
2022-09-26T11:03:13.321Z,61.40
2022-09-26T11:04:13.394Z,61.30
2022-09-26T11:05:13.922Z,61.40
2022-09-26T11:06:13.081Z,61.10
2022-09-26T11:07:13.040Z,61.60
2022-09-26T11:08:12.941Z,61.00
2022-09-26T11:09:12.879Z,61.02
2022-09-26T11:10:12.821Z,61.02
2022-09-26T11:11:12.758Z,60.75
2022-09-26T11:12:12.699Z,61.46
2022-09-26T11:13:12.623Z,62.81
2022-09-26T11:14:12.721Z,63.11
2022-09-26T11:15:12.493Z,63.21
2022-09-26T11:16:13.540Z,63.04
2022-09-26T11:17:12.381Z,63.34
2022-09-26T11:18:12.311Z,63.95
2022-09-26T11:19:12.358Z,64.15
2022-09-26T11:20:12.854Z,63.75
2022-09-26T11:21:27.846Z,63.24
2022-09-26T11:22:12.060Z,63.75
2022-09-26T11:23:14.302Z,63.34
2022-09-26T11:24:12.014Z,63.75
2022-09-26T11:25:11.854Z,63.34
2022-09-26T11:26:11.809Z,63.45
2022-09-26T11:27:11.745Z,63.24
2022-09-26T11:28:11.682Z,62.91
2022-09-26T11:29:11.626Z,62.51
2022-09-26T11:30:11.617Z,62.51
2022-09-26T11:31:11.534Z,62.53
2022-09-26T11:32:11.428Z,62.71
2022-09-26T11:33:11.356Z,62.51
2022-09-26T11:34:11.283Z,62.81
2022-09-26T11:35:11.243Z,62.30
2022-09-26T11:36:11.153Z,62.71
2022-09-26T11:37:11.086Z,62.20
2022-09-26T11:38:11.051Z,62.98
2022-09-26T11:39:10.973Z,61.97
2022-09-26T11:40:10.921Z,61.97
2022-09-26T11:41:11.616Z,61.87
2022-09-26T11:42:10.768Z,61.76
2022-09-26T11:43:10.726Z,61.36
2022-09-26T11:44:10.656Z,60.85
2022-09-26T11:45:10.571Z,61.69
2022-09-26T11:46:10.551Z,61.59
2022-09-26T11:47:11.667Z,60.78
2022-09-26T11:48:10.426Z,60.58
2022-09-26T11:49:10.318Z,61.49
2022-09-26T11:50:10.270Z,61.29
2022-09-26T11:51:10.207Z,61.69
2022-09-26T11:52:10.141Z,62.10
2022-09-26T11:53:10.333Z,60.55
2022-09-26T11:54:10.025Z,60.65
2022-09-26T11:55:09.949Z,60.31
2022-09-26T11:56:09.883Z,60.21
2022-09-26T11:57:09.813Z,59.27
2022-09-26T11:58:09.746Z,59.55
2022-09-26T11:59:09.707Z,58.44
2022-09-26T12:00:09.677Z,59.14
2022-09-26T12:01:09.569Z,59.45
